sensor_id;sensor_type;location;lat;lon;timestamp;pressure;altitude;pressure_sealevel;temperature;humidity
4346;BME280;2186;49.866;7.986;2024-01-15T00:00:44;99263.38;;;-0.33;90.30
4346;BME280;2186;49.866;7.986;2024-01-15T00:03:11;99262.50;;;-0.31;89.27
4346;BME280;2186;49.866;7.986;2024-01-15T00:05:38;99269.47;;;-0.31;89.76
4346;BME280;2186;49.866;7.986;2024-01-15T00:08:04;99278.19;;;-0.26;89.43
4346;BME280;2186;49.866;7.986;2024-01-15T00:10:31;99278.19;;;-0.37;89.24
4346;BME280;2186;49.866;7.986;2024-01-15T00:12:57;99270.34;;;-0.31;90.13
4346;BME280;2186;49.866;7.986;2024-01-15T00:15:24;99272.09;;;-0.26;90.01
4346;BME280;2186;49.866;7.986;2024-01-15T00:17:51;99266.03;;;-0.65;89.96
4346;BME280;2186;49.866;7.986;2024-01-15T00:20:17;99263.38;;;-0.45;90.07
4346;BME280;2186;49.866;7.986;2024-01-15T00:22:44;99247.72;;;-0.35;89.76
4346;BME280;2186;49.866;7.986;2024-01-15T00:25:10;99238.13;;;-0.31;90.05
4346;BME280;2186;49.866;7.986;2024-01-15T00:27:37;99240.78;;;-0.40;89.45
4346;BME280;2186;49.866;7.986;2024-01-15T00:30:04;99250.34;;;-0.48;89.80
4346;BME280;2186;49.866;7.986;2024-01-15T00:32:31;99246.84;;;-0.44;89.80
4346;BME280;2186;49.866;7.986;2024-01-15T00:34:57;99237.31;;;-0.41;90.35
4346;BME280;2186;49.866;7.986;2024-01-15T00:37:24;99236.41;;;-0.34;90.01
4346;BME280;2186;49.866;7.986;2024-01-15T00:39:50;99240.75;;;-0.43;89.62
4346;BME280;2186;49.866;7.986;2024-01-15T00:42:17;99239.91;;;-0.44;89.75
4346;BME280;2186;49.866;7.986;2024-01-15T00:44:44;99227.69;;;-0.33;90.16
4346;BME280;2186;49.866;7.986;2024-01-15T00:47:10;99231.16;;;-0.23;89.85
4346;BME280;2186;49.866;7.986;2024-01-15T00:49:37;99225.06;;;-0.17;89.65
4346;BME280;2186;49.866;7.986;2024-01-15T00:52:04;99217.16;;;-0.01;88.86
4346;BME280;2186;49.866;7.986;2024-01-15T00:54:30;99221.47;;;0.11;89.24
4346;BME280;2186;49.866;7.986;2024-01-15T00:56:56;99220.59;;;0.11;88.57
4346;BME280;2186;49.866;7.986;2024-01-15T00:59:23;99223.22;;;0.09;88.56
4346;BME280;2186;49.866;7.986;2024-01-15T01:01:49;99214.56;;;0.01;87.68
4346;BME280;2186;49.866;7.986;2024-01-15T01:04:16;99211.88;;;0.13;87.94
4346;BME280;2186;49.866;7.986;2024-01-15T01:06:42;99211.03;;;0.11;88.47
4346;BME280;2186;49.866;7.986;2024-01-15T01:09:09;99216.25;;;0.08;88.91
4346;BME280;2186;49.866;7.986;2024-01-15T01:11:35;99216.25;;;0.14;88.32
4346;BME280;2186;49.866;7.986;2024-01-15T01:14:02;99216.25;;;0.11;88.30
4346;BME280;2186;49.866;7.986;2024-01-15T01:16:29;99213.59;;;0.23;88.40
4346;BME280;2186;49.866;7.986;2024-01-15T01:19:00;99207.50;;;0.21;87.67
4346;BME280;2186;49.866;7.986;2024-01-15T01:21:27;99204.88;;;0.21;88.73
4346;BME280;2186;49.866;7.986;2024-01-15T01:23:53;99197.00;;;0.26;87.93
4346;BME280;2186;49.866;7.986;2024-01-15T01:26:20;99198.69;;;0.39;87.27
4346;BME280;2186;49.866;7.986;2024-01-15T01:28:46;99203.13;;;0.22;87.08
4346;BME280;2186;49.866;7.986;2024-01-15T01:31:12;99199.59;;;0.34;87.52
4346;BME280;2186;49.866;7.986;2024-01-15T01:33:39;99182.19;;;0.31;88.10
4346;BME280;2186;49.866;7.986;2024-01-15T01:36:08;99181.34;;;0.29;87.85
4346;BME280;2186;49.866;7.986;2024-01-15T01:38:36;99198.75;;;0.32;87.21
4346;BME280;2186;49.866;7.986;2024-01-15T01:41:03;99208.34;;;0.28;87.38
4346;BME280;2186;49.866;7.986;2024-01-15T01:43:29;99197.88;;;0.31;87.77
4346;BME280;2186;49.866;7.986;2024-01-15T01:45:56;99200.41;;;0.45;87.40
4346;BME280;2186;49.866;7.986;2024-01-15T01:48:25;99217.88;;;0.41;87.23
4346;BME280;2186;49.866;7.986;2024-01-15T01:50:57;99231.94;;;0.08;88.48
4346;BME280;2186;49.866;7.986;2024-01-15T01:53:28;99229.28;;;0.20;89.02
4346;BME280;2186;49.866;7.986;2024-01-15T01:55:56;99223.19;;;0.18;88.06
4346;BME280;2186;49.866;7.986;2024-01-15T01:58:23;99214.44;;;0.24;87.88
4346;BME280;2186;49.866;7.986;2024-01-15T02:00:50;99211.00;;;0.19;88.03
4346;BME280;2186;49.866;7.986;2024-01-15T02:03:17;99205.78;;;0.13;88.86
4346;BME280;2186;49.866;7.986;2024-01-15T02:05:43;99208.44;;;0.07;88.52
4346;BME280;2186;49.866;7.986;2024-01-15T02:08:11;99204.06;;;0.16;88.24
4346;BME280;2186;49.866;7.986;2024-01-15T02:10:37;99206.66;;;0.16;89.02
4346;BME280;2186;49.866;7.986;2024-01-15T02:13:04;99194.47;;;0.12;88.57
4346;BME280;2186;49.866;7.986;2024-01-15T02:15:30;99203.19;;;0.10;88.70
4346;BME280;2186;49.866;7.986;2024-01-15T02:18:01;99212.72;;;0.21;88.95
4346;BME280;2186;49.866;7.986;2024-01-15T02:20:29;99209.22;;;0.24;88.87
4346;BME280;2186;49.866;7.986;2024-01-15T02:23:10;99192.59;;;0.39;88.16
4346;BME280;2186;49.866;7.986;2024-01-15T02:25:45;99194.34;;;0.37;88.18
4346;BME280;2186;49.866;7.986;2024-01-15T02:28:14;99183.88;;;0.40;87.63
4346;BME280;2186;49.866;7.986;2024-01-15T02:30:41;99185.56;;;0.50;87.65
4346;BME280;2186;49.866;7.986;2024-01-15T02:33:09;99189.06;;;0.49;88.18
4346;BME280;2186;49.866;7.986;2024-01-15T02:35:37;99183.84;;;0.46;88.17
4346;BME280;2186;49.866;7.986;2024-01-15T02:38:06;99186.47;;;0.44;87.64
4346;BME280;2186;49.866;7.986;2024-01-15T02:40:34;99184.66;;;0.57;88.02
4346;BME280;2186;49.866;7.986;2024-01-15T02:43:00;99181.22;;;0.49;87.75
4346;BME280;2186;49.866;7.986;2024-01-15T02:45:27;99183.88;;;0.44;87.99
4346;BME280;2186;49.866;7.986;2024-01-15T02:47:53;99182.13;;;0.43;88.92
4346;BME280;2186;49.866;7.986;2024-01-15T02:50:20;99170.88;;;0.32;88.65
4346;BME280;2186;49.866;7.986;2024-01-15T02:52:47;99177.78;;;0.44;88.02
4346;BME280;2186;49.866;7.986;2024-01-15T02:55:13;99171.66;;;0.45;87.83
4346;BME280;2186;49.866;7.986;2024-01-15T02:57:40;99176.97;;;0.33;88.35
4346;BME280;2186;49.866;7.986;2024-01-15T03:00:07;99176.88;;;0.46;88.87
4346;BME280;2186;49.866;7.986;2024-01-15T03:02:37;99181.19;;;0.52;87.80
4346;BME280;2186;49.866;7.986;2024-01-15T03:05:08;99184.69;;;0.52;88.19
4346;BME280;2186;49.866;7.986;2024-01-15T03:07:34;99179.38;;;0.65;88.02
4346;BME280;2186;49.866;7.986;2024-01-15T03:10:01;99175.91;;;0.61;88.22
4346;BME280;2186;49.866;7.986;2024-01-15T03:12:28;99175.91;;;0.61;87.60
4346;BME280;2186;49.866;7.986;2024-01-15T03:14:54;99174.97;;;0.71;87.28
4346;BME280;2186;49.866;7.986;2024-01-15T03:17:20;99183.72;;;0.66;87.60
4346;BME280;2186;49.866;7.986;2024-01-15T03:19:47;99183.63;;;0.78;87.30
4346;BME280;2186;49.866;7.986;2024-01-15T03:22:13;99183.63;;;0.79;86.97
4346;BME280;2186;49.866;7.986;2024-01-15T03:24:40;99186.28;;;0.76;87.66
4346;BME280;2186;49.866;7.986;2024-01-15T03:27:06;99193.38;;;0.56;87.79
4346;BME280;2186;49.866;7.986;2024-01-15T03:29:33;99187.16;;;0.74;87.46
4346;BME280;2186;49.866;7.986;2024-01-15T03:31:59;99188.94;;;0.70;87.68
4346;BME280;2186;49.866;7.986;2024-01-15T03:34:26;99181.91;;;0.77;87.36
4346;BME280;2186;49.866;7.986;2024-01-15T03:36:52;99177.59;;;0.73;87.97
4346;BME280;2186;49.866;7.986;2024-01-15T03:39:19;99164.41;;;0.82;87.07
4346;BME280;2186;49.866;7.986;2024-01-15T03:41:45;99168.88;;;0.72;87.61
4346;BME280;2186;49.866;7.986;2024-01-15T03:44:11;99167.94;;;0.82;87.48
4346;BME280;2186;49.866;7.986;2024-01-15T03:46:38;99161.81;;;0.83;87.04
4346;BME280;2186;49.866;7.986;2024-01-15T03:49:04;99158.31;;;0.84;87.40
4346;BME280;2186;49.866;7.986;2024-01-15T03:51:31;99140.88;;;0.82;86.67
4346;BME280;2186;49.866;7.986;2024-01-15T03:53:57;99134.72;;;0.89;86.69
4346;BME280;2186;49.866;7.986;2024-01-15T03:56:24;99119.88;;;0.91;87.17
4346;BME280;2186;49.866;7.986;2024-01-15T03:58:50;99125.19;;;0.85;87.14
4346;BME280;2186;49.866;7.986;2024-01-15T04:01:17;99130.50;;;0.74;87.76
4346;BME280;2186;49.866;7.986;2024-01-15T04:03:43;99135.75;;;0.71;87.49
4346;BME280;2186;49.866;7.986;2024-01-15T04:06:10;99134.81;;;0.78;88.18
4346;BME280;2186;49.866;7.986;2024-01-15T04:08:36;99133.94;;;0.79;87.37
4346;BME280;2186;49.866;7.986;2024-01-15T04:11:03;99142.72;;;0.72;87.74
4346;BME280;2186;49.866;7.986;2024-01-15T04:13:32;99143.59;;;0.71;87.23
4346;BME280;2186;49.866;7.986;2024-01-15T04:16:00;99132.16;;;0.86;87.36
4346;BME280;2186;49.866;7.986;2024-01-15T04:18:27;99121.66;;;0.89;88.22
4346;BME280;2186;49.866;7.986;2024-01-15T04:20:53;99124.38;;;0.75;87.57
4346;BME280;2186;49.866;7.986;2024-01-15T04:23:19;99119.22;;;0.71;87.40
4346;BME280;2186;49.866;7.986;2024-01-15T04:25:49;99112.38;;;0.50;88.11
4346;BME280;2186;49.866;7.986;2024-01-15T04:28:16;99102.78;;;0.52;88.55
4346;BME280;2186;49.866;7.986;2024-01-15T04:30:42;99101.06;;;0.49;89.40
4346;BME280;2186;49.866;7.986;2024-01-15T04:33:09;99101.97;;;0.44;89.31
4346;BME280;2186;49.866;7.986;2024-01-15T04:35:37;99109.81;;;0.44;89.40
4346;BME280;2186;49.866;7.986;2024-01-15T04:38:03;99115.06;;;0.38;90.35
4346;BME280;2186;49.866;7.986;2024-01-15T04:40:30;99121.19;;;0.35;89.47
4346;BME280;2186;49.866;7.986;2024-01-15T04:42:56;99114.19;;;0.39;90.42
4346;BME280;2186;49.866;7.986;2024-01-15T04:45:22;99122.03;;;0.43;89.82
4346;BME280;2186;49.866;7.986;2024-01-15T04:47:54;99118.41;;;0.59;89.32
4346;BME280;2186;49.866;7.986;2024-01-15T04:50:22;99115.09;;;0.35;89.06
4346;BME280;2186;49.866;7.986;2024-01-15T04:52:50;99111.59;;;0.37;90.29
4346;BME280;2186;49.866;7.986;2024-01-15T04:55:16;99104.69;;;0.27;90.59
4346;BME280;2186;49.866;7.986;2024-01-15T04:57:43;99102.16;;;0.13;90.64
4346;BME280;2186;49.866;7.986;2024-01-15T05:00:10;99104.75;;;0.19;91.22
4346;BME280;2186;49.866;7.986;2024-01-15T05:02:38;99101.31;;;0.11;91.09
4346;BME280;2186;49.866;7.986;2024-01-15T05:05:05;99102.06;;;0.30;90.53
4346;BME280;2186;49.866;7.986;2024-01-15T05:07:31;99092.66;;;-0.02;91.21
4346;BME280;2186;49.866;7.986;2024-01-15T05:09:57;99096.16;;;-0.01;92.35
4346;BME280;2186;49.866;7.986;2024-01-15T05:12:24;99102.25;;;0.03;92.03
4346;BME280;2186;49.866;7.986;2024-01-15T05:14:51;99091.84;;;-0.08;92.36
4346;BME280;2186;49.866;7.986;2024-01-15T05:17:17;99086.59;;;-0.04;92.73
4346;BME280;2186;49.866;7.986;2024-01-15T05:19:44;99085.66;;;0.08;92.22
4346;BME280;2186;49.866;7.986;2024-01-15T05:22:10;99084.72;;;0.18;91.73
4346;BME280;2186;49.866;7.986;2024-01-15T05:24:37;99089.03;;;0.25;91.13
4346;BME280;2186;49.866;7.986;2024-01-15T05:27:04;99089.75;;;0.46;90.85
4346;BME280;2186;49.866;7.986;2024-01-15T05:29:30;99093.97;;;0.65;89.47
4346;BME280;2186;49.866;7.986;2024-01-15T05:31:56;99094.03;;;0.59;89.81
4346;BME280;2186;49.866;7.986;2024-01-15T05:34:27;99098.38;;;0.60;89.77
4346;BME280;2186;49.866;7.986;2024-01-15T05:36:54;99088.91;;;0.41;89.96
4346;BME280;2186;49.866;7.986;2024-01-15T05:39:20;99094.13;;;0.45;90.22
4346;BME280;2186;49.866;7.986;2024-01-15T05:41:49;99096.41;;;0.85;89.63
4346;BME280;2186;49.866;7.986;2024-01-15T05:44:15;99104.38;;;0.71;89.32
4346;BME280;2186;49.866;7.986;2024-01-15T05:46:42;99099.16;;;0.70;89.48
4346;BME280;2186;49.866;7.986;2024-01-15T05:49:08;99105.34;;;0.58;89.09
4346;BME280;2186;49.866;7.986;2024-01-15T05:51:35;99102.78;;;0.52;89.40
4346;BME280;2186;49.866;7.986;2024-01-15T05:54:02;99097.63;;;0.43;89.50
4346;BME280;2186;49.866;7.986;2024-01-15T05:56:28;99102.00;;;0.38;90.27
4346;BME280;2186;49.866;7.986;2024-01-15T05:58:54;99104.41;;;0.65;90.42
4346;BME280;2186;49.866;7.986;2024-01-15T06:01:21;99093.09;;;0.63;90.18
4346;BME280;2186;49.866;7.986;2024-01-15T06:03:47;99091.44;;;0.51;89.83
4346;BME280;2186;49.866;7.986;2024-01-15T06:06:14;99080.00;;;0.69;89.56
4346;BME280;2186;49.866;7.986;2024-01-15T06:08:40;99073.06;;;0.64;89.32
4346;BME280;2186;49.866;7.986;2024-01-15T06:11:07;99075.59;;;0.74;89.63
4346;BME280;2186;49.866;7.986;2024-01-15T06:13:34;99072.13;;;0.72;89.87
4346;BME280;2186;49.866;7.986;2024-01-15T06:16:00;99071.25;;;0.73;89.99
4346;BME280;2186;49.866;7.986;2024-01-15T06:18:27;99056.47;;;0.69;90.30
4346;BME280;2186;49.866;7.986;2024-01-15T06:20:53;99059.00;;;0.75;90.61
4346;BME280;2186;49.866;7.986;2024-01-15T06:23:20;99058.13;;;0.78;90.67
4346;BME280;2186;49.866;7.986;2024-01-15T06:25:47;99048.41;;;0.91;89.82
4346;BME280;2186;49.866;7.986;2024-01-15T06:28:13;99054.59;;;0.83;89.99
4346;BME280;2186;49.866;7.986;2024-01-15T06:30:39;99054.63;;;0.77;90.36
4346;BME280;2186;49.866;7.986;2024-01-15T06:33:06;99060.69;;;0.82;90.39
4346;BME280;2186;49.866;7.986;2024-01-15T06:35:33;99059.03;;;0.74;90.65
4346;BME280;2186;49.866;7.986;2024-01-15T06:38:00;99052.09;;;0.71;91.28
4346;BME280;2186;49.866;7.986;2024-01-15T06:40:27;99058.22;;;0.66;91.58
4346;BME280;2186;49.866;7.986;2024-01-15T06:42:53;99062.50;;;0.76;92.18
4346;BME280;2186;49.866;7.986;2024-01-15T06:45:20;99067.66;;;0.80;90.77
4346;BME280;2186;49.866;7.986;2024-01-15T06:47:46;99063.31;;;0.79;91.00
4346;BME280;2186;49.866;7.986;2024-01-15T06:50:12;99062.44;;;0.80;91.61
4346;BME280;2186;49.866;7.986;2024-01-15T06:52:39;99067.66;;;0.80;90.49
4346;BME280;2186;49.866;7.986;2024-01-15T06:55:05;99063.19;;;0.93;90.71
4346;BME280;2186;49.866;7.986;2024-01-15T06:57:32;99068.56;;;0.79;91.42
4346;BME280;2186;49.866;7.986;2024-01-15T06:59:58;99057.22;;;0.80;91.61
4346;BME280;2186;49.866;7.986;2024-01-15T07:02:26;99066.81;;;0.78;90.99
4346;BME280;2186;49.866;7.986;2024-01-15T07:04:53;99053.56;;;0.95;91.31
4346;BME280;2186;49.866;7.986;2024-01-15T07:07:19;99057.28;;;0.74;91.91
4346;BME280;2186;49.866;7.986;2024-01-15T07:09:46;99058.66;;;1.09;91.43
4346;BME280;2186;49.866;7.986;2024-01-15T07:12:12;99053.44;;;1.09;91.83
4346;BME280;2186;49.866;7.986;2024-01-15T07:14:39;99068.25;;;1.11;90.66
4346;BME280;2186;49.866;7.986;2024-01-15T07:17:05;99064.69;;;1.17;91.51
4346;BME280;2186;49.866;7.986;2024-01-15T07:19:32;99060.50;;;1.02;92.26
4346;BME280;2186;49.866;7.986;2024-01-15T07:21:59;99052.59;;;1.10;92.63
4346;BME280;2186;49.866;7.986;2024-01-15T07:24:26;99053.47;;;1.06;92.37
4346;BME280;2186;49.866;7.986;2024-01-15T07:26:52;99050.91;;;1.03;92.12
4346;BME280;2186;49.866;7.986;2024-01-15T07:29:19;99046.50;;;1.06;91.66
4346;BME280;2186;49.866;7.986;2024-01-15T07:31:49;99043.97;;;0.99;91.43
4346;BME280;2186;49.866;7.986;2024-01-15T07:34:17;99048.22;;;1.07;92.29
4346;BME280;2186;49.866;7.986;2024-01-15T07:36:44;99049.34;;;0.83;92.26
4346;BME280;2186;49.866;7.986;2024-01-15T07:39:11;99055.25;;;1.02;91.41
4346;BME280;2186;49.866;7.986;2024-01-15T07:41:37;99049.06;;;1.12;91.38
4346;BME280;2186;49.866;7.986;2024-01-15T07:44:05;99039.53;;;1.04;91.36
4346;BME280;2186;49.866;7.986;2024-01-15T07:46:31;99052.63;;;1.04;91.07
4346;BME280;2186;49.866;7.986;2024-01-15T07:48:58;99052.59;;;1.05;92.19
4346;BME280;2186;49.866;7.986;2024-01-15T07:51:25;99055.13;;;1.16;90.85
4346;BME280;2186;49.866;7.986;2024-01-15T07:53:53;99056.91;;;1.09;91.14
4346;BME280;2186;49.866;7.986;2024-01-15T07:56:20;99068.28;;;1.10;91.30
4346;BME280;2186;49.866;7.986;2024-01-15T07:58:47;99056.09;;;1.04;90.72
4346;BME280;2186;49.866;7.986;2024-01-15T08:01:14;99067.47;;;1.03;91.49
4346;BME280;2186;49.866;7.986;2024-01-15T08:03:40;99068.44;;;0.93;90.82
4346;BME280;2186;49.866;7.986;2024-01-15T08:06:07;99061.41;;;0.95;91.54
4346;BME280;2186;49.866;7.986;2024-01-15T08:08:37;99061.41;;;0.98;91.44
4346;BME280;2186;49.866;7.986;2024-01-15T08:11:03;99059.66;;;0.99;91.67
4346;BME280;2186;49.866;7.986;2024-01-15T08:13:30;99051.69;;;1.08;91.93
4346;BME280;2186;49.866;7.986;2024-01-15T08:15:57;99052.50;;;1.16;90.90
4346;BME280;2186;49.866;7.986;2024-01-15T08:18:23;99047.47;;;0.95;90.59
4346;BME280;2186;49.866;7.986;2024-01-15T08:20:50;99047.66;;;0.78;91.71
4346;BME280;2186;49.866;7.986;2024-01-15T08:23:18;99044.94;;;0.88;92.24
4346;BME280;2186;49.866;7.986;2024-01-15T08:25:46;99044.88;;;0.93;92.11
4346;BME280;2186;49.866;7.986;2024-01-15T08:28:12;99042.22;;;0.99;91.60
4346;BME280;2186;49.866;7.986;2024-01-15T08:30:38;99043.03;;;1.04;91.73
4346;BME280;2186;49.866;7.986;2024-01-15T08:33:05;99026.31;;;1.17;91.13
4346;BME280;2186;49.866;7.986;2024-01-15T08:35:43;99029.59;;;1.35;91.67
4346;BME280;2186;49.866;7.986;2024-01-15T08:38:10;99018.25;;;1.34;91.47
4346;BME280;2186;49.866;7.986;2024-01-15T08:40:36;99019.28;;;1.24;91.68
4346;BME280;2186;49.866;7.986;2024-01-15T08:43:03;99016.34;;;1.48;90.63
4346;BME280;2186;49.866;7.986;2024-01-15T08:45:29;99025.88;;;1.54;90.34
4346;BME280;2186;49.866;7.986;2024-01-15T08:47:58;99025.97;;;1.46;90.25
4346;BME280;2186;49.866;7.986;2024-01-15T08:50:24;99022.88;;;1.83;89.72
4346;BME280;2186;49.866;7.986;2024-01-15T08:52:51;99027.66;;;1.52;89.11
4346;BME280;2186;49.866;7.986;2024-01-15T08:55:17;99036.81;;;1.85;89.25
4346;BME280;2186;49.866;7.986;2024-01-15T08:57:44;99048.25;;;1.80;88.61
4346;BME280;2186;49.866;7.986;2024-01-15T09:00:11;99060.47;;;1.79;89.46
4346;BME280;2186;49.866;7.986;2024-01-15T09:02:38;99056.16;;;1.75;88.98
4346;BME280;2186;49.866;7.986;2024-01-15T09:05:04;99051.53;;;1.95;88.99
4346;BME280;2186;49.866;7.986;2024-01-15T09:07:32;99046.31;;;1.91;88.74
4346;BME280;2186;49.866;7.986;2024-01-15T09:09:58;99046.03;;;2.12;88.33
4346;BME280;2186;49.866;7.986;2024-01-15T09:12:26;99046.19;;;2.00;88.08
4346;BME280;2186;49.866;7.986;2024-01-15T09:14:52;99041.47;;;1.65;88.77
4346;BME280;2186;49.866;7.986;2024-01-15T09:17:20;99043.84;;;1.82;89.08
4346;BME280;2186;49.866;7.986;2024-01-15T09:19:48;99049.03;;;1.85;88.69
4346;BME280;2186;49.866;7.986;2024-01-15T09:22:15;99040.22;;;1.90;88.89
4346;BME280;2186;49.866;7.986;2024-01-15T09:24:45;99046.00;;;2.14;87.60
4346;BME280;2186;49.866;7.986;2024-01-15T09:27:11;99052.22;;;2.08;88.31
4346;BME280;2186;49.866;7.986;2024-01-15T09:29:38;99055.72;;;2.05;88.11
4346;BME280;2186;49.866;7.986;2024-01-15T09:32:06;99053.84;;;2.15;87.57
4346;BME280;2186;49.866;7.986;2024-01-15T09:34:34;99054.72;;;2.14;87.72
4346;BME280;2186;49.866;7.986;2024-01-15T09:37:01;99060.06;;;2.10;87.77
4346;BME280;2186;49.866;7.986;2024-01-15T09:39:28;99061.03;;;2.01;87.93
4346;BME280;2186;49.866;7.986;2024-01-15T09:41:55;99060.97;;;2.07;87.97
4346;BME280;2186;49.866;7.986;2024-01-15T09:44:22;99061.78;;;2.11;88.29
4346;BME280;2186;49.866;7.986;2024-01-15T09:46:49;99054.00;;;2.03;88.38
4346;BME280;2186;49.866;7.986;2024-01-15T09:49:17;99043.59;;;1.98;88.15
4346;BME280;2186;49.866;7.986;2024-01-15T09:51:44;99046.09;;;2.09;88.62
4346;BME280;2186;49.866;7.986;2024-01-15T09:54:16;99042.59;;;2.08;88.56
4346;BME280;2186;49.866;7.986;2024-01-15T09:56:47;99053.78;;;2.20;88.22
4346;BME280;2186;49.866;7.986;2024-01-15T09:59:15;99038.94;;;2.17;88.32
4346;BME280;2186;49.866;7.986;2024-01-15T10:01:43;99041.34;;;2.34;87.64
4346;BME280;2186;49.866;7.986;2024-01-15T10:04:13;99045.06;;;2.18;88.32
4346;BME280;2186;49.866;7.986;2024-01-15T10:06:45;99043.38;;;2.14;88.60
4346;BME280;2186;49.866;7.986;2024-01-15T10:09:12;99036.34;;;2.17;88.43
4346;BME280;2186;49.866;7.986;2024-01-15T10:11:41;99038.81;;;2.26;88.78
4346;BME280;2186;49.866;7.986;2024-01-15T10:14:09;99036.31;;;2.20;89.21
4346;BME280;2186;49.866;7.986;2024-01-15T10:16:39;99033.31;;;2.43;88.55
4346;BME280;2186;49.866;7.986;2024-01-15T10:19:05;99038.09;;;2.17;89.03
4346;BME280;2186;49.866;7.986;2024-01-15T10:21:33;99036.47;;;2.10;89.00
4346;BME280;2186;49.866;7.986;2024-01-15T10:24:03;99033.59;;;2.26;88.89
4346;BME280;2186;49.866;7.986;2024-01-15T10:26:31;99038.78;;;2.29;89.12
4346;BME280;2186;49.866;7.986;2024-01-15T10:29:00;99037.00;;;2.31;88.72
4346;BME280;2186;49.866;7.986;2024-01-15T10:31:28;99038.78;;;2.28;88.94
4346;BME280;2186;49.866;7.986;2024-01-15T10:34:12;99027.94;;;2.51;88.48
4346;BME280;2186;49.866;7.986;2024-01-15T10:36:41;99017.69;;;2.37;88.41
4346;BME280;2186;49.866;7.986;2024-01-15T10:39:07;99012.44;;;2.37;88.21
4346;BME280;2186;49.866;7.986;2024-01-15T10:41:34;99014.94;;;2.43;88.58
4346;BME280;2186;49.866;7.986;2024-01-15T10:44:01;99008.69;;;2.52;87.31
4346;BME280;2186;49.866;7.986;2024-01-15T10:46:28;99003.81;;;2.29;87.33
4346;BME280;2186;49.866;7.986;2024-01-15T10:48:55;99001.72;;;2.51;87.39
4346;BME280;2186;49.866;7.986;2024-01-15T10:51:21;99000.88;;;2.49;87.35
4346;BME280;2186;49.866;7.986;2024-01-15T10:53:49;98990.97;;;2.66;86.78
4346;BME280;2186;49.866;7.986;2024-01-15T10:56:15;98991.25;;;2.51;86.79
4346;BME280;2186;49.866;7.986;2024-01-15T10:58:42;98986.94;;;2.45;86.38
4346;BME280;2186;49.866;7.986;2024-01-15T11:01:09;98985.53;;;2.26;86.82
4346;BME280;2186;49.866;7.986;2024-01-15T11:03:36;98988.53;;;2.55;86.13
4346;BME280;2186;49.866;7.986;2024-01-15T11:06:03;98985.81;;;2.60;86.04
4346;BME280;2186;49.866;7.986;2024-01-15T11:08:30;98984.84;;;2.65;85.51
4346;BME280;2186;49.866;7.986;2024-01-15T11:10:57;98982.94;;;2.75;85.05
4346;BME280;2186;49.866;7.986;2024-01-15T11:16:01;98974.94;;;2.81;84.69
4346;BME280;2186;49.866;7.986;2024-01-15T11:18:29;98976.56;;;2.87;84.40
4346;BME280;2186;49.866;7.986;2024-01-15T11:23:45;98973.47;;;3.11;84.23
4346;BME280;2186;49.866;7.986;2024-01-15T11:26:44;98966.94;;;3.32;83.61
4346;BME280;2186;49.866;7.986;2024-01-15T11:31:57;98974.34;;;3.53;83.04
4346;BME280;2186;49.866;7.986;2024-01-15T11:34:50;98967.28;;;3.57;82.17
4346;BME280;2186;49.866;7.986;2024-01-15T11:37:18;98972.59;;;3.54;82.12
4346;BME280;2186;49.866;7.986;2024-01-15T11:39:45;98970.25;;;3.40;82.48
4346;BME280;2186;49.866;7.986;2024-01-15T11:42:15;98958.75;;;3.47;82.99
4346;BME280;2186;49.866;7.986;2024-01-15T11:44:43;98967.25;;;3.17;83.26
4346;BME280;2186;49.866;7.986;2024-01-15T11:47:12;98981.97;;;3.24;83.40
4346;BME280;2186;49.866;7.986;2024-01-15T11:52:35;98985.13;;;3.43;82.46
4346;BME280;2186;49.866;7.986;2024-01-15T11:55:39;98981.13;;;3.23;82.70
4346;BME280;2186;49.866;7.986;2024-01-15T11:58:00;98982.25;;;3.10;83.06
4346;BME280;2186;49.866;7.986;2024-01-15T12:00:28;98973.59;;;3.07;83.76
4346;BME280;2186;49.866;7.986;2024-01-15T12:02:55;98984.84;;;3.12;83.65
4346;BME280;2186;49.866;7.986;2024-01-15T12:05:22;98979.69;;;3.07;83.21
4346;BME280;2186;49.866;7.986;2024-01-15T12:07:49;98984.56;;;3.25;83.45
4346;BME280;2186;49.866;7.986;2024-01-15T12:10:17;98980.34;;;3.18;83.14
4346;BME280;2186;49.866;7.986;2024-01-15T12:13:05;98987.59;;;3.49;82.50
4346;BME280;2186;49.866;7.986;2024-01-15T12:15:32;98973.41;;;3.56;82.19
4346;BME280;2186;49.866;7.986;2024-01-15T12:18:00;98977.81;;;3.57;81.93
4346;BME280;2186;49.866;7.986;2024-01-15T12:20:32;98974.66;;;3.80;80.86
4346;BME280;2186;49.866;7.986;2024-01-15T12:23:00;98970.44;;;3.73;81.58
4346;BME280;2186;49.866;7.986;2024-01-15T12:25:30;98973.31;;;3.62;81.18
4346;BME280;2186;49.866;7.986;2024-01-15T12:27:58;98972.56;;;3.57;81.41
4346;BME280;2186;49.866;7.986;2024-01-15T12:30:28;98969.03;;;3.58;80.86
4346;BME280;2186;49.866;7.986;2024-01-15T12:32:55;98969.69;;;3.66;81.21
4346;BME280;2186;49.866;7.986;2024-01-15T12:35:23;98973.00;;;3.76;79.73
4346;BME280;2186;49.866;7.986;2024-01-15T12:37:50;98976.25;;;3.47;80.63
4346;BME280;2186;49.866;7.986;2024-01-15T12:40:22;98968.47;;;3.42;81.25
4346;BME280;2186;49.866;7.986;2024-01-15T12:42:49;98967.25;;;3.59;81.46
4346;BME280;2186;49.866;7.986;2024-01-15T12:45:17;98969.09;;;3.53;80.95
4346;BME280;2186;49.866;7.986;2024-01-15T12:47:44;98979.88;;;3.43;80.83
4346;BME280;2186;49.866;7.986;2024-01-15T12:50:11;98980.97;;;3.31;81.06
4346;BME280;2186;49.866;7.986;2024-01-15T12:52:45;98970.44;;;3.33;81.31
4346;BME280;2186;49.866;7.986;2024-01-15T12:55:13;98967.22;;;3.60;81.29
4346;BME280;2186;49.866;7.986;2024-01-15T12:57:40;98977.78;;;3.59;80.75
4346;BME280;2186;49.866;7.986;2024-01-15T13:00:07;98971.63;;;3.60;80.08
4346;BME280;2186;49.866;7.986;2024-01-15T13:02:42;98974.72;;;3.77;79.96
4346;BME280;2186;49.866;7.986;2024-01-15T13:05:10;98982.56;;;3.78;79.36
4346;BME280;2186;49.866;7.986;2024-01-15T13:07:38;98986.50;;;3.59;79.73
4346;BME280;2186;49.866;7.986;2024-01-15T13:10:06;98982.84;;;3.66;79.79
4346;BME280;2186;49.866;7.986;2024-01-15T13:12:33;98975.63;;;3.76;79.29
4346;BME280;2186;49.866;7.986;2024-01-15T13:15:00;98971.28;;;3.75;79.03
4346;BME280;2186;49.866;7.986;2024-01-15T13:17:29;98971.09;;;3.82;78.55
4346;BME280;2186;49.866;7.986;2024-01-15T13:19:56;98965.81;;;3.84;78.62
4346;BME280;2186;49.866;7.986;2024-01-15T13:22:22;98967.66;;;3.79;78.75
4346;BME280;2186;49.866;7.986;2024-01-15T13:24:51;98959.34;;;3.99;78.49
4346;BME280;2186;49.866;7.986;2024-01-15T13:27:17;98966.44;;;3.94;78.09
4346;BME280;2186;49.866;7.986;2024-01-15T13:29:44;98965.25;;;4.07;77.81
4346;BME280;2186;49.866;7.986;2024-01-15T13:32:14;98972.81;;;3.83;77.80
4346;BME280;2186;49.866;7.986;2024-01-15T13:34:43;98962.91;;;3.95;77.73
4346;BME280;2186;49.866;7.986;2024-01-15T13:37:10;98961.09;;;3.98;77.91
4346;BME280;2186;49.866;7.986;2024-01-15T13:39:38;98973.94;;;4.12;77.53
4346;BME280;2186;49.866;7.986;2024-01-15T13:42:04;98963.38;;;4.13;77.52
4346;BME280;2186;49.866;7.986;2024-01-15T13:44:31;98968.13;;;4.33;76.79